sensor_id;sensor_type;location;lat;lon;timestamp;pressure;altitude;pressure_sealevel;temperature;humidity
8894;BME280;4483;48.622;9.230;2022-10-26T00:01:03;97903.44;;;11.69;100.00
8894;BME280;4483;48.622;9.230;2022-10-26T00:03:30;97908.59;;;11.69;100.00
8894;BME280;4483;48.622;9.230;2022-10-26T00:06:02;97905.13;;;11.70;100.00
8894;BME280;4483;48.622;9.230;2022-10-26T00:08:30;97906.78;;;11.71;100.00
8894;BME280;4483;48.622;9.230;2022-10-26T00:10:57;97904.19;;;11.71;100.00
8894;BME280;4483;48.622;9.230;2022-10-26T00:13:24;97907.56;;;11.73;100.00
8894;BME280;4483;48.622;9.230;2022-10-26T00:15:50;97904.19;;;11.71;100.00
8894;BME280;4483;48.622;9.230;2022-10-26T00:18:17;97905.22;;;11.67;100.00
8894;BME280;4483;48.622;9.230;2022-10-26T00:20:43;97904.47;;;11.65;100.00
8894;BME280;4483;48.622;9.230;2022-10-26T00:23:10;97902.66;;;11.67;100.00
8894;BME280;4483;48.622;9.230;2022-10-26T00:25:38;97900.78;;;11.70;100.00
8894;BME280;4483;48.622;9.230;2022-10-26T00:28:05;97894.66;;;11.73;100.00
8894;BME280;4483;48.622;9.230;2022-10-26T00:30:31;97895.56;;;11.72;100.00
8894;BME280;4483;48.622;9.230;2022-10-26T00:32:58;97897.16;;;11.74;100.00
8894;BME280;4483;48.622;9.230;2022-10-26T00:35:24;97901.47;;;11.74;100.00
8894;BME280;4483;48.622;9.230;2022-10-26T00:37:53;97891.16;;;11.74;100.00
8894;BME280;4483;48.622;9.230;2022-10-26T00:40:20;97901.47;;;11.74;100.00
8894;BME280;4483;48.622;9.230;2022-10-26T00:42:47;97903.16;;;11.75;100.00
8894;BME280;4483;48.622;9.230;2022-10-26T00:45:18;97908.31;;;11.75;100.00
8894;BME280;4483;48.622;9.230;2022-10-26T00:47:46;97910.84;;;11.76;100.00
8894;BME280;4483;48.622;9.230;2022-10-26T00:50:17;97907.38;;;11.77;100.00
8894;BME280;4483;48.622;9.230;2022-10-26T00:52:45;97907.28;;;11.79;100.00
8894;BME280;4483;48.622;9.230;2022-10-26T00:55:12;97894.31;;;11.80;100.00
8894;BME280;4483;48.622;9.230;2022-10-26T00:57:38;97906.25;;;11.83;100.00
8894;BME280;4483;48.622;9.230;2022-10-26T01:00:08;97906.25;;;11.83;100.00
8894;BME280;4483;48.622;9.230;2022-10-26T01:02:34;97912.31;;;11.82;100.00
8894;BME280;4483;48.622;9.230;2022-10-26T01:05:02;97905.34;;;11.84;100.00
8894;BME280;4483;48.622;9.230;2022-10-26T01:07:30;97899.25;;;11.85;100.00
8894;BME280;4483;48.622;9.230;2022-10-26T01:09:58;97900.09;;;11.85;100.00
8894;BME280;4483;48.622;9.230;2022-10-26T01:12:26;97899.22;;;11.86;100.00
8894;BME280;4483;48.622;9.230;2022-10-26T01:14:52;97893.19;;;11.86;100.00
8894;BME280;4483;48.622;9.230;2022-10-26T01:17:35;97893.19;;;11.86;100.00
8894;BME280;4483;48.622;9.230;2022-10-26T01:20:42;97887.34;;;11.82;100.00
8894;BME280;4483;48.622;9.230;2022-10-26T01:23:19;97878.75;;;11.82;100.00
8894;BME280;4483;48.622;9.230;2022-10-26T01:29:09;97861.44;;;11.84;100.00
8894;BME280;4483;48.622;9.230;2022-10-26T01:31:42;97868.28;;;11.85;100.00
8894;BME280;4483;48.622;9.230;2022-10-26T01:34:12;97865.66;;;11.86;100.00
8894;BME280;4483;48.622;9.230;2022-10-26T01:36:43;97845.97;;;11.84;100.00
8894;BME280;4483;48.622;9.230;2022-10-26T01:39:15;97840.03;;;11.82;100.00
8894;BME280;4483;48.622;9.230;2022-10-26T01:41:46;97846.13;;;11.81;100.00
8894;BME280;4483;48.622;9.230;2022-10-26T01:44:17;97854.75;;;11.80;100.00
8894;BME280;4483;48.622;9.230;2022-10-26T01:46:48;97860.69;;;11.82;100.00
8894;BME280;4483;48.622;9.230;2022-10-26T01:49:20;97858.94;;;11.82;100.00
8894;BME280;4483;48.622;9.230;2022-10-26T01:51:48;97851.13;;;11.84;100.00
8894;BME280;4483;48.622;9.230;2022-10-26T01:54:15;97856.13;;;11.87;100.00
8894;BME280;4483;48.622;9.230;2022-10-26T01:56:43;97857.75;;;11.89;100.00
8894;BME280;4483;48.622;9.230;2022-10-26T01:59:30;97861.19;;;11.90;100.00
8894;BME280;4483;48.622;9.230;2022-10-26T02:02:37;97858.53;;;11.91;100.00
8894;BME280;4483;48.622;9.230;2022-10-26T02:05:28;97866.34;;;11.90;100.00
8894;BME280;4483;48.622;9.230;2022-10-26T02:08:07;97854.69;;;11.81;100.00
8894;BME280;4483;48.622;9.230;2022-10-26T02:10:45;97860.91;;;11.77;100.00
8894;BME280;4483;48.622;9.230;2022-10-26T02:13:18;97848.81;;;11.78;100.00
8894;BME280;4483;48.622;9.230;2022-10-26T02:15:50;97838.38;;;11.81;100.00
8894;BME280;4483;48.622;9.230;2022-10-26T02:18:26;97832.44;;;11.79;100.00
8894;BME280;4483;48.622;9.230;2022-10-26T02:20:57;97839.25;;;11.80;100.00
8894;BME280;4483;48.622;9.230;2022-10-26T02:23:26;97863.25;;;11.82;100.00
8894;BME280;4483;48.622;9.230;2022-10-26T02:25:56;97864.97;;;11.83;100.00
8894;BME280;4483;48.622;9.230;2022-10-26T02:28:27;97865.91;;;11.80;100.00
8894;BME280;4483;48.622;9.230;2022-10-26T02:30:58;97880.47;;;11.81;100.00
8894;BME280;4483;48.622;9.230;2022-10-26T02:33:30;97875.31;;;11.81;100.00
8894;BME280;4483;48.622;9.230;2022-10-26T02:36:01;97884.75;;;11.82;100.00
8894;BME280;4483;48.622;9.230;2022-10-26T02:38:30;97881.41;;;11.80;100.00
8894;BME280;4483;48.622;9.230;2022-10-26T02:40:59;97884.06;;;11.79;100.00
8894;BME280;4483;48.622;9.230;2022-10-26T02:43:29;97886.56;;;11.80;100.00
8894;BME280;4483;48.622;9.230;2022-10-26T02:45:58;97884.84;;;11.81;100.00
8894;BME280;4483;48.622;9.230;2022-10-26T02:48:29;97877.13;;;11.79;100.00
8894;BME280;4483;48.622;9.230;2022-10-26T02:50:59;97873.81;;;11.77;100.00
8894;BME280;4483;48.622;9.230;2022-10-26T02:53:30;97887.59;;;11.76;100.00
8894;BME280;4483;48.622;9.230;2022-10-26T02:56:02;97879.88;;;11.76;100.00
8894;BME280;4483;48.622;9.230;2022-10-26T02:58:35;97884.06;;;11.79;100.00
8894;BME280;4483;48.622;9.230;2022-10-26T03:01:03;97881.56;;;11.77;100.00
8894;BME280;4483;48.622;9.230;2022-10-26T03:03:32;97892.69;;;11.78;100.00
8894;BME280;4483;48.622;9.230;2022-10-26T03:05:59;97885.88;;;11.77;100.00
8894;BME280;4483;48.622;9.230;2022-10-26T03:08:25;97889.34;;;11.76;100.00
8894;BME280;4483;48.622;9.230;2022-10-26T03:10:52;97890.34;;;11.73;100.00
8894;BME280;4483;48.622;9.230;2022-10-26T03:13:18;97899.66;;;11.76;100.00
8894;BME280;4483;48.622;9.230;2022-10-26T03:15:45;97898.00;;;11.75;100.00
8894;BME280;4483;48.622;9.230;2022-10-26T03:18:11;97903.03;;;11.78;100.00
8894;BME280;4483;48.622;9.230;2022-10-26T03:20:42;97910.69;;;11.79;100.00
8894;BME280;4483;48.622;9.230;2022-10-26T03:23:09;97916.69;;;11.80;100.00
8894;BME280;4483;48.622;9.230;2022-10-26T03:25:36;97923.56;;;11.81;100.00
8894;BME280;4483;48.622;9.230;2022-10-26T03:28:03;97928.06;;;11.76;100.00
8894;BME280;4483;48.622;9.230;2022-10-26T03:30:31;97957.22;;;11.78;100.00
8894;BME280;4483;48.622;9.230;2022-10-26T03:32:58;97962.53;;;11.75;100.00
8894;BME280;4483;48.622;9.230;2022-10-26T03:35:24;97963.41;;;11.74;100.00
8894;BME280;4483;48.622;9.230;2022-10-26T03:37:52;97964.19;;;11.76;100.00
8894;BME280;4483;48.622;9.230;2022-10-26T03:40:19;97953.88;;;11.76;100.00
8894;BME280;4483;48.622;9.230;2022-10-26T03:42:46;97948.84;;;11.73;100.00
8894;BME280;4483;48.622;9.230;2022-10-26T03:45:12;97957.16;;;11.79;100.00
8894;BME280;4483;48.622;9.230;2022-10-26T03:47:43;97957.94;;;11.81;100.00
8894;BME280;4483;48.622;9.230;2022-10-26T03:50:10;97950.06;;;11.84;100.00
8894;BME280;4483;48.622;9.230;2022-10-26T03:52:37;97936.31;;;11.84;100.00
8894;BME280;4483;48.622;9.230;2022-10-26T03:55:07;97933.59;;;11.87;100.00
8894;BME280;4483;48.622;9.230;2022-10-26T03:57:33;97941.22;;;11.90;100.00
8894;BME280;4483;48.622;9.230;2022-10-26T04:00:00;97942.00;;;11.92;100.00
8894;BME280;4483;48.622;9.230;2022-10-26T04:02:27;97935.00;;;11.94;100.00
8894;BME280;4483;48.622;9.230;2022-10-26T04:04:54;97930.66;;;11.94;100.00
8894;BME280;4483;48.622;9.230;2022-10-26T04:07:20;97923.63;;;11.98;100.00
8894;BME280;4483;48.622;9.230;2022-10-26T04:09:47;97885.94;;;11.94;100.00
8894;BME280;4483;48.622;9.230;2022-10-26T04:12:15;97862.69;;;11.94;100.00
8894;BME280;4483;48.622;9.230;2022-10-26T04:14:41;97871.38;;;11.93;100.00
8894;BME280;4483;48.622;9.230;2022-10-26T04:17:08;97904.84;;;11.94;100.00
8894;BME280;4483;48.622;9.230;2022-10-26T04:19:34;97915.81;;;11.99;100.00
8894;BME280;4483;48.622;9.230;2022-10-26T04:22:01;97910.59;;;12.01;100.00
8894;BME280;4483;48.622;9.230;2022-10-26T04:24:28;97914.91;;;12.00;100.00
8894;BME280;4483;48.622;9.230;2022-10-26T04:26:54;97908.91;;;12.00;100.00
8894;BME280;4483;48.622;9.230;2022-10-26T04:29:22;97917.56;;;11.99;100.00
8894;BME280;4483;48.622;9.230;2022-10-26T04:31:48;97928.59;;;12.02;100.00
8894;BME280;4483;48.622;9.230;2022-10-26T04:34:15;97947.38;;;12.06;100.00
8894;BME280;4483;48.622;9.230;2022-10-26T04:36:42;97935.31;;;12.06;100.00
8894;BME280;4483;48.622;9.230;2022-10-26T04:39:08;97918.75;;;12.10;100.00
8894;BME280;4483;48.622;9.230;2022-10-26T04:41:35;97909.19;;;12.12;100.00
8894;BME280;4483;48.622;9.230;2022-10-26T04:44:01;97903.19;;;12.12;100.00
8894;BME280;4483;48.622;9.230;2022-10-26T04:46:29;97909.88;;;12.16;100.00
8894;BME280;4483;48.622;9.230;2022-10-26T04:48:56;97913.22;;;12.18;100.00
8894;BME280;4483;48.622;9.230;2022-10-26T04:51:22;97904.59;;;12.19;100.00
8894;BME280;4483;48.622;9.230;2022-10-26T04:53:49;97896.69;;;12.22;100.00
8894;BME280;4483;48.622;9.230;2022-10-26T04:56:15;97906.94;;;12.24;100.00
8894;BME280;4483;48.622;9.230;2022-10-26T04:58:42;97901.00;;;12.22;100.00
8894;BME280;4483;48.622;9.230;2022-10-26T05:01:08;97908.75;;;12.22;100.00
8894;BME280;4483;48.622;9.230;2022-10-26T05:03:36;97914.06;;;12.19;100.00
8894;BME280;4483;48.622;9.230;2022-10-26T05:06:03;97909.06;;;12.16;100.00
8894;BME280;4483;48.622;9.230;2022-10-26T05:08:29;97915.03;;;12.16;100.00
8894;BME280;4483;48.622;9.230;2022-10-26T05:10:56;97910.78;;;12.15;100.00
8894;BME280;4483;48.622;9.230;2022-10-26T05:13:23;97912.53;;;12.14;100.00
8894;BME280;4483;48.622;9.230;2022-10-26T05:15:51;97913.47;;;12.13;100.00
8894;BME280;4483;48.622;9.230;2022-10-26T05:18:18;97915.19;;;12.13;100.00
8894;BME280;4483;48.622;9.230;2022-10-26T05:20:46;97919.47;;;12.14;100.00
8894;BME280;4483;48.622;9.230;2022-10-26T05:23:14;97925.38;;;12.16;100.00
8894;BME280;4483;48.622;9.230;2022-10-26T05:25:42;97929.66;;;12.17;100.00
8894;BME280;4483;48.622;9.230;2022-10-26T05:28:11;97926.13;;;12.18;100.00
8894;BME280;4483;48.622;9.230;2022-10-26T05:30:38;97926.13;;;12.18;100.00
8894;BME280;4483;48.622;9.230;2022-10-26T05:33:05;97928.59;;;12.21;100.00
8894;BME280;4483;48.622;9.230;2022-10-26T05:35:32;97928.59;;;12.21;100.00
8894;BME280;4483;48.622;9.230;2022-10-26T05:38:05;97934.53;;;12.23;100.00
8894;BME280;4483;48.622;9.230;2022-10-26T05:40:32;97927.75;;;12.21;100.00
8894;BME280;4483;48.622;9.230;2022-10-26T05:42:59;97927.06;;;12.17;100.00
8894;BME280;4483;48.622;9.230;2022-10-26T05:45:27;97925.94;;;12.41;100.00
8894;BME280;4483;48.622;9.230;2022-10-26T05:47:53;97929.16;;;12.28;100.00
8894;BME280;4483;48.622;9.230;2022-10-26T05:50:20;97924.94;;;12.25;100.00
8894;BME280;4483;48.622;9.230;2022-10-26T05:52:47;97926.78;;;12.23;100.00
8894;BME280;4483;48.622;9.230;2022-10-26T05:55:17;97920.72;;;12.24;100.00
8894;BME280;4483;48.622;9.230;2022-10-26T05:57:44;97933.63;;;12.24;100.00
8894;BME280;4483;48.622;9.230;2022-10-26T06:00:16;97936.19;;;12.24;100.00
8894;BME280;4483;48.622;9.230;2022-10-26T06:02:52;97943.03;;;12.25;100.00
8894;BME280;4483;48.622;9.230;2022-10-26T06:05:27;97948.16;;;12.27;100.00
8894;BME280;4483;48.622;9.230;2022-10-26T06:07:54;97960.06;;;12.29;100.00
8894;BME280;4483;48.622;9.230;2022-10-26T06:10:23;97956.53;;;12.32;100.00
8894;BME280;4483;48.622;9.230;2022-10-26T06:12:50;97964.19;;;12.33;100.00
8894;BME280;4483;48.622;9.230;2022-10-26T06:15:19;97970.13;;;12.35;100.00
8894;BME280;4483;48.622;9.230;2022-10-26T06:17:53;97971.88;;;12.35;100.00
8894;BME280;4483;48.622;9.230;2022-10-26T06:20:32;97967.56;;;12.35;100.00
8894;BME280;4483;48.622;9.230;2022-10-26T06:23:23;97975.22;;;12.37;100.00
8894;BME280;4483;48.622;9.230;2022-10-26T06:26:00;97974.53;;;12.33;100.00
8894;BME280;4483;48.622;9.230;2022-10-26T06:28:36;97977.19;;;12.32;100.00
8894;BME280;4483;48.622;9.230;2022-10-26T06:31:06;97983.22;;;12.32;100.00
8894;BME280;4483;48.622;9.230;2022-10-26T06:33:33;97985.72;;;12.34;100.00
8894;BME280;4483;48.622;9.230;2022-10-26T06:36:08;97984.72;;;12.36;100.00
8894;BME280;4483;48.622;9.230;2022-10-26T06:38:39;97996.69;;;12.39;100.00
8894;BME280;4483;48.622;9.230;2022-10-26T06:41:10;98006.81;;;12.43;100.00
8894;BME280;4483;48.622;9.230;2022-10-26T06:43:40;98005.69;;;12.49;100.00
8894;BME280;4483;48.622;9.230;2022-10-26T06:46:13;98012.69;;;12.65;100.00
8894;BME280;4483;48.622;9.230;2022-10-26T06:48:47;98006.50;;;12.68;100.00
8894;BME280;4483;48.622;9.230;2022-10-26T06:51:16;98014.00;;;12.74;100.00
8894;BME280;4483;48.622;9.230;2022-10-26T06:53:49;98021.41;;;12.81;100.00
8894;BME280;4483;48.622;9.230;2022-10-26T06:56:20;98024.16;;;12.95;100.00
8894;BME280;4483;48.622;9.230;2022-10-26T06:58:49;98022.78;;;13.07;100.00
8894;BME280;4483;48.622;9.230;2022-10-26T07:01:18;98021.66;;;13.13;100.00
8894;BME280;4483;48.622;9.230;2022-10-26T07:03:44;98027.72;;;13.11;100.00
8894;BME280;4483;48.622;9.230;2022-10-26T07:06:11;98029.44;;;13.13;100.00
8894;BME280;4483;48.622;9.230;2022-10-26T07:08:38;98037.25;;;13.11;100.00
8894;BME280;4483;48.622;9.230;2022-10-26T07:11:04;98033.06;;;13.08;100.00
8894;BME280;4483;48.622;9.230;2022-10-26T07:13:32;98033.06;;;13.08;100.00
8894;BME280;4483;48.622;9.230;2022-10-26T07:15:59;98038.94;;;13.12;100.00
8894;BME280;4483;48.622;9.230;2022-10-26T07:18:26;98038.63;;;13.18;100.00
8894;BME280;4483;48.622;9.230;2022-10-26T07:20:52;98043.59;;;13.23;100.00
8894;BME280;4483;48.622;9.230;2022-10-26T07:23:19;98051.06;;;13.29;100.00
8894;BME280;4483;48.622;9.230;2022-10-26T07:25:47;98056.94;;;13.32;100.00
8894;BME280;4483;48.622;9.230;2022-10-26T07:28:13;98052.44;;;13.36;100.00
8894;BME280;4483;48.622;9.230;2022-10-26T07:30:41;98065.22;;;13.39;100.00
8894;BME280;4483;48.622;9.230;2022-10-26T07:33:09;98051.91;;;13.29;100.00
8894;BME280;4483;48.622;9.230;2022-10-26T07:35:37;98081.38;;;13.44;100.00
8894;BME280;4483;48.622;9.230;2022-10-26T07:38:04;98075.19;;;13.46;100.00
8894;BME280;4483;48.622;9.230;2022-10-26T07:40:31;98074.91;;;13.52;100.00
8894;BME280;4483;48.622;9.230;2022-10-26T07:42:58;98081.47;;;13.59;100.00
8894;BME280;4483;48.622;9.230;2022-10-26T07:45:26;98084.63;;;13.66;100.00
8894;BME280;4483;48.622;9.230;2022-10-26T07:47:55;98079.06;;;13.73;100.00
8894;BME280;4483;48.622;9.230;2022-10-26T07:50:22;98087.44;;;13.78;100.00
8894;BME280;4483;48.622;9.230;2022-10-26T07:52:48;98078.72;;;13.79;100.00
8894;BME280;4483;48.622;9.230;2022-10-26T07:55:15;98088.03;;;13.83;100.00
8894;BME280;4483;48.622;9.230;2022-10-26T07:57:42;98097.34;;;13.87;100.00
8894;BME280;4483;48.622;9.230;2022-10-26T08:00:09;98090.00;;;13.95;100.00
8894;BME280;4483;48.622;9.230;2022-10-26T08:02:36;98089.63;;;14.03;100.00
8894;BME280;4483;48.622;9.230;2022-10-26T08:05:05;98083.97;;;14.12;100.00
8894;BME280;4483;48.622;9.230;2022-10-26T08:07:31;98086.84;;;14.23;100.00
8894;BME280;4483;48.622;9.230;2022-10-26T08:09:58;98090.03;;;14.30;100.00
8894;BME280;4483;48.622;9.230;2022-10-26T08:12:25;98084.84;;;14.30;100.00
8894;BME280;4483;48.622;9.230;2022-10-26T08:14:51;98094.28;;;14.31;100.00
8894;BME280;4483;48.622;9.230;2022-10-26T08:17:18;98093.50;;;14.29;100.00
8894;BME280;4483;48.622;9.230;2022-10-26T08:19:46;98090.09;;;14.28;100.00
8894;BME280;4483;48.622;9.230;2022-10-26T08:22:14;98092.69;;;14.28;100.00
8894;BME280;4483;48.622;9.230;2022-10-26T08:24:41;98087.44;;;14.30;100.00
8894;BME280;4483;48.622;9.230;2022-10-26T08:27:08;98092.28;;;14.36;100.00
8894;BME280;4483;48.622;9.230;2022-10-26T08:29:35;98085.50;;;14.33;100.00
8894;BME280;4483;48.622;9.230;2022-10-26T08:32:01;98091.22;;;14.40;100.00
8894;BME280;4483;48.622;9.230;2022-10-26T08:34:28;98098.84;;;14.43;100.00
8894;BME280;4483;48.622;9.230;2022-10-26T08:36:54;98101.34;;;14.44;100.00
8894;BME280;4483;48.622;9.230;2022-10-26T08:39:22;98100.28;;;14.48;100.00
8894;BME280;4483;48.622;9.230;2022-10-26T08:41:55;98104.31;;;14.54;100.00
8894;BME280;4483;48.622;9.230;2022-10-26T08:44:27;98109.31;;;14.57;100.00
8894;BME280;4483;48.622;9.230;2022-10-26T08:46:59;98115.09;;;14.62;100.00
8894;BME280;4483;48.622;9.230;2022-10-26T08:49:34;98130.25;;;14.69;100.00
8894;BME280;4483;48.622;9.230;2022-10-26T08:52:05;98121.25;;;14.76;100.00
8894;BME280;4483;48.622;9.230;2022-10-26T08:54:38;98127.63;;;14.86;100.00
8894;BME280;4483;48.622;9.230;2022-10-26T08:57:14;98115.75;;;14.98;100.00
8894;BME280;4483;48.622;9.230;2022-10-26T08:59:46;98118.44;;;15.12;100.00
8894;BME280;4483;48.622;9.230;2022-10-26T09:02:16;98119.38;;;15.27;100.00
8894;BME280;4483;48.622;9.230;2022-10-26T09:04:43;98122.81;;;15.43;100.00
8894;BME280;4483;48.622;9.230;2022-10-26T09:07:19;98127.16;;;15.58;100.00
8894;BME280;4483;48.622;9.230;2022-10-26T09:09:55;98132.16;;;15.76;100.00
8894;BME280;4483;48.622;9.230;2022-10-26T09:12:27;98139.94;;;16.06;100.00
8894;BME280;4483;48.622;9.230;2022-10-26T09:15:08;98139.03;;;16.37;100.00
8894;BME280;4483;48.622;9.230;2022-10-26T09:17:44;98135.34;;;16.69;100.00
8894;BME280;4483;48.622;9.230;2022-10-26T09:20:36;98125.63;;;17.41;100.00
8894;BME280;4483;48.622;9.230;2022-10-26T09:23:13;98126.81;;;18.28;100.00
8894;BME280;4483;48.622;9.230;2022-10-26T09:25:48;98129.03;;;18.34;100.00
8894;BME280;4483;48.622;9.230;2022-10-26T09:28:17;98129.16;;;18.33;100.00
8894;BME280;4483;48.622;9.230;2022-10-26T09:30:45;98132.78;;;18.30;100.00
8894;BME280;4483;48.622;9.230;2022-10-26T09:33:15;98141.97;;;18.23;100.00
8894;BME280;4483;48.622;9.230;2022-10-26T09:35:43;98141.34;;;18.32;100.00
8894;BME280;4483;48.622;9.230;2022-10-26T09:38:15;98134.06;;;18.50;100.00
8894;BME280;4483;48.622;9.230;2022-10-26T09:40:53;98146.31;;;18.74;100.00
8894;BME280;4483;48.622;9.230;2022-10-26T09:43:24;98140.13;;;19.49;98.75
8894;BME280;4483;48.622;9.230;2022-10-26T09:45:52;98150.97;;;20.27;95.42
8894;BME280;4483;48.622;9.230;2022-10-26T09:48:21;98141.91;;;20.76;93.22
8894;BME280;4483;48.622;9.230;2022-10-26T09:50:53;98149.50;;;21.68;89.97
8894;BME280;4483;48.622;9.230;2022-10-26T09:53:21;98139.06;;;22.41;84.46
8894;BME280;4483;48.622;9.230;2022-10-26T09:55:55;98139.53;;;22.96;79.75
8894;BME280;4483;48.622;9.230;2022-10-26T09:58:27;98148.13;;;22.98;78.34
8894;BME280;4483;48.622;9.230;2022-10-26T10:00:55;98154.75;;;22.52;75.71
8894;BME280;4483;48.622;9.230;2022-10-26T10:03:25;98156.59;;;21.99;75.95
8894;BME280;4483;48.622;9.230;2022-10-26T10:05:52;98157.84;;;21.62;76.02
8894;BME280;4483;48.622;9.230;2022-10-26T10:08:20;98170.16;;;21.28;76.23
8894;BME280;4483;48.622;9.230;2022-10-26T10:10:57;98159.22;;;21.01;76.15
8894;BME280;4483;48.622;9.230;2022-10-26T10:13:26;98159.59;;;21.08;77.03
8894;BME280;4483;48.622;9.230;2022-10-26T10:15:55;98174.47;;;21.40;75.25
8894;BME280;4483;48.622;9.230;2022-10-26T10:18:23;98170.84;;;21.52;75.19
8894;BME280;4483;48.622;9.230;2022-10-26T10:20:52;98176.19;;;21.84;74.93
8894;BME280;4483;48.622;9.230;2022-10-26T10:23:30;98174.97;;;21.88;73.06
8894;BME280;4483;48.622;9.230;2022-10-26T10:26:00;98178.19;;;22.44;69.75
8894;BME280;4483;48.622;9.230;2022-10-26T10:28:27;98177.88;;;22.99;65.85
8894;BME280;4483;48.622;9.230;2022-10-26T10:30:55;98168.31;;;23.58;65.02
8894;BME280;4483;48.622;9.230;2022-10-26T10:33:32;98171.47;;;24.11;62.68
8894;BME280;4483;48.622;9.230;2022-10-26T10:35:59;98165.88;;;24.62;61.25
8894;BME280;4483;48.622;9.230;2022-10-26T10:38:27;98167.31;;;25.03;59.62
8894;BME280;4483;48.622;9.230;2022-10-26T10:40:56;98155.97;;;25.39;58.14
8894;BME280;4483;48.622;9.230;2022-10-26T10:43:25;98158.16;;;25.88;57.93
8894;BME280;4483;48.622;9.230;2022-10-26T10:45:54;98158.94;;;26.33;55.21
8894;BME280;4483;48.622;9.230;2022-10-26T10:48:23;98167.47;;;26.27;54.20
8894;BME280;4483;48.622;9.230;2022-10-26T10:50:53;98168.34;;;25.83;53.38
8894;BME280;4483;48.622;9.230;2022-10-26T10:53:23;98171.06;;;25.37;53.22
8894;BME280;4483;48.622;9.230;2022-10-26T10:56:01;98181.53;;;24.92;54.76
8894;BME280;4483;48.622;9.230;2022-10-26T10:58:39;98176.00;;;24.66;55.79
8894;BME280;4483;48.622;9.230;2022-10-26T11:01:11;98180.47;;;24.28;56.00
8894;BME280;4483;48.622;9.230;2022-10-26T11:03:47;98180.88;;;24.04;57.15
8894;BME280;4483;48.622;9.230;2022-10-26T11:06:20;98180.66;;;23.86;58.02
8894;BME280;4483;48.622;9.230;2022-10-26T11:08:50;98188.13;;;23.72;58.44
8894;BME280;4483;48.622;9.230;2022-10-26T11:11:23;98180.34;;;23.51;59.00
8894;BME280;4483;48.622;9.230;2022-10-26T11:13:55;98191.22;;;23.37;59.73
8894;BME280;4483;48.622;9.230;2022-10-26T11:16:28;98189.06;;;23.22;60.28
8894;BME280;4483;48.622;9.230;2022-10-26T11:18:58;98196.56;;;23.06;60.67
8894;BME280;4483;48.622;9.230;2022-10-26T11:21:28;98189.75;;;22.93;60.97
8894;BME280;4483;48.622;9.230;2022-10-26T11:24:02;98194.38;;;22.80;62.15
8894;BME280;4483;48.622;9.230;2022-10-26T11:26:39;98194.06;;;22.74;62.22
8894;BME280;4483;48.622;9.230;2022-10-26T11:29:18;98200.66;;;22.68;62.40
8894;BME280;4483;48.622;9.230;2022-10-26T11:31:51;98197.50;;;22.54;62.68
8894;BME280;4483;48.622;9.230;2022-10-26T11:34:26;98192.75;;;22.48;63.25
8894;BME280;4483;48.622;9.230;2022-10-26T11:37:01;98192.53;;;22.40;63.71
8894;BME280;4483;48.622;9.230;2022-10-26T11:39:35;98200.03;;;22.44;64.25
8894;BME280;4483;48.622;9.230;2022-10-26T11:42:10;98196.19;;;22.59;63.75
8894;BME280;4483;48.622;9.230;2022-10-26T11:44:46;98201.38;;;22.70;63.38
8894;BME280;4483;48.622;9.230;2022-10-26T11:47:18;98199.19;;;22.75;63.66
8894;BME280;4483;48.622;9.230;2022-10-26T11:49:52;98193.59;;;22.89;63.15
8894;BME280;4483;48.622;9.230;2022-10-26T11:52:24;98209.72;;;23.06;62.43
8894;BME280;4483;48.622;9.230;2022-10-26T11:54:54;98205.88;;;23.10;62.53
8894;BME280;4483;48.622;9.230;2022-10-26T11:57:22;98197.97;;;23.30;62.64
8894;BME280;4483;48.622;9.230;2022-10-26T11:59:52;98195.72;;;23.56;62.14
8894;BME280;4483;48.622;9.230;2022-10-26T12:02:21;98193.69;;;23.78;61.73
8894;BME280;4483;48.622;9.230;2022-10-26T12:04:51;98194.94;;;23.93;61.69
8894;BME280;4483;48.622;9.230;2022-10-26T12:07:23;98190.50;;;23.84;60.95
8894;BME280;4483;48.622;9.230;2022-10-26T12:09:51;98200.06;;;23.76;61.19
8894;BME280;4483;48.622;9.230;2022-10-26T12:12:24;98201.69;;;23.67;61.46
8894;BME280;4483;48.622;9.230;2022-10-26T12:15:04;98196.41;;;23.58;60.95
8894;BME280;4483;48.622;9.230;2022-10-26T12:17:38;98192.22;;;23.46;60.22
8894;BME280;4483;48.622;9.230;2022-10-26T12:20:22;98197.59;;;23.35;60.22
8894;BME280;4483;48.622;9.230;2022-10-26T12:23:02;98189.47;;;23.27;60.09
8894;BME280;4483;48.622;9.230;2022-10-26T12:25:30;98200.00;;;23.27;59.60
8894;BME280;4483;48.622;9.230;2022-10-26T12:27:57;98195.72;;;23.26;60.03
8894;BME280;4483;48.622;9.230;2022-10-26T12:30:28;98201.22;;;23.23;59.43
8894;BME280;4483;48.622;9.230;2022-10-26T12:32:56;98204.38;;;23.17;59.75
8894;BME280;4483;48.622;9.230;2022-10-26T12:35:29;98208.25;;;23.13;59.57
8894;BME280;4483;48.622;9.230;2022-10-26T12:37:57;98212.22;;;23.07;59.16
8894;BME280;4483;48.622;9.230;2022-10-26T12:40:38;98213.59;;;23.02;59.80
8894;BME280;4483;48.622;9.230;2022-10-26T12:43:34;98219.63;;;22.92;60.39
8894;BME280;4483;48.622;9.230;2022-10-26T12:52:32;98215.00;;;22.85;60.57
8894;BME280;4483;48.622;9.230;2022-10-26T12:55:29;98219.63;;;22.92;60.45
8894;BME280;4483;48.622;9.230;2022-10-26T12:58:21;98227.16;;;23.07;60.39
8894;BME280;4483;48.622;9.230;2022-10-26T13:01:20;98218.50;;;23.16;59.43
8894;BME280;4483;48.622;9.230;2022-10-26T13:03:55;98225.81;;;23.33;59.16
8894;BME280;4483;48.622;9.230;2022-10-26T13:06:36;98221.03;;;23.47;57.83
8894;BME280;4483;48.622;9.230;2022-10-26T13:09:14;98219.75;;;23.91;57.19
8894;BME280;4483;48.622;9.230;2022-10-26T13:11:45;98225.91;;;24.39;55.81
8894;BME280;4483;48.622;9.230;2022-10-26T13:14:18;98221.47;;;24.87;55.14
8894;BME280;4483;48.622;9.230;2022-10-26T13:16:46;98227.88;;;25.22;54.14
8894;BME280;4483;48.622;9.230;2022-10-26T13:19:22;98206.34;;;25.36;52.56
8894;BME280;4483;48.622;9.230;2022-10-26T13:21:50;98216.56;;;25.58;51.81
8894;BME280;4483;48.622;9.230;2022-10-26T13:24:20;98210.41;;;25.67;51.10
8894;BME280;4483;48.622;9.230;2022-10-26T13:27:23;98215.47;;;25.78;51.04
8894;BME280;4483;48.622;9.230;2022-10-26T13:30:18;98213.50;;;26.07;50.76
8894;BME280;4483;48.622;9.230;2022-10-26T13:32:48;98215.47;;;26.23;50.25
8894;BME280;4483;48.622;9.230;2022-10-26T13:35:18;98225.44;;;26.29;49.59
8894;BME280;4483;48.622;9.230;2022-10-26T13:37:47;98225.00;;;26.33;49.46
8894;BME280;4483;48.622;9.230;2022-10-26T13:40:18;98229.13;;;26.36;49.39
8894;BME280;4483;48.622;9.230;2022-10-26T13:42:47;98222.34;;;26.33;48.85